sensor_id;sensor_type;location;lat;lon;timestamp;P1;durP1;ratioP1;P2;durP2;ratioP2
10162;SDS011;5123;52.556;13.384;2023-07-24T00:00:46;6.17;;;3.50;;
10162;SDS011;5123;52.556;13.384;2023-07-24T00:03:20;4.73;;;3.70;;
10162;SDS011;5123;52.556;13.384;2023-07-24T00:05:53;4.70;;;3.90;;
10162;SDS011;5123;52.556;13.384;2023-07-24T00:08:27;8.03;;;3.47;;
10162;SDS011;5123;52.556;13.384;2023-07-24T00:10:59;4.70;;;3.90;;
10162;SDS011;5123;52.556;13.384;2023-07-24T00:13:34;4.17;;;3.57;;
10162;SDS011;5123;52.556;13.384;2023-07-24T00:16:07;4.17;;;3.73;;
10162;SDS011;5123;52.556;13.384;2023-07-24T00:18:41;4.63;;;3.07;;
10162;SDS011;5123;52.556;13.384;2023-07-24T00:21:14;3.87;;;2.83;;
10162;SDS011;5123;52.556;13.384;2023-07-24T00:23:49;4.40;;;3.50;;
10162;SDS011;5123;52.556;13.384;2023-07-24T00:26:22;4.87;;;3.13;;
10162;SDS011;5123;52.556;13.384;2023-07-24T00:28:54;5.80;;;3.60;;
10162;SDS011;5123;52.556;13.384;2023-07-24T00:31:27;4.03;;;3.67;;
10162;SDS011;5123;52.556;13.384;2023-07-24T00:34:01;5.13;;;3.30;;
10162;SDS011;5123;52.556;13.384;2023-07-24T00:36:34;3.70;;;3.40;;
10162;SDS011;5123;52.556;13.384;2023-07-24T00:39:07;4.33;;;3.07;;
10162;SDS011;5123;52.556;13.384;2023-07-24T00:41:40;4.23;;;2.80;;
10162;SDS011;5123;52.556;13.384;2023-07-24T00:44:12;4.13;;;3.60;;
10162;SDS011;5123;52.556;13.384;2023-07-24T00:46:46;3.87;;;3.30;;
10162;SDS011;5123;52.556;13.384;2023-07-24T00:49:20;4.07;;;3.33;;
10162;SDS011;5123;52.556;13.384;2023-07-24T00:51:53;3.17;;;2.87;;
10162;SDS011;5123;52.556;13.384;2023-07-24T00:54:26;3.60;;;2.73;;
10162;SDS011;5123;52.556;13.384;2023-07-24T00:57:00;3.90;;;3.50;;
10162;SDS011;5123;52.556;13.384;2023-07-24T00:59:33;3.50;;;3.00;;
10162;SDS011;5123;52.556;13.384;2023-07-24T01:02:06;4.97;;;3.27;;
10162;SDS011;5123;52.556;13.384;2023-07-24T01:04:43;3.40;;;3.10;;
10162;SDS011;5123;52.556;13.384;2023-07-24T01:07:16;5.27;;;3.03;;
10162;SDS011;5123;52.556;13.384;2023-07-24T01:09:49;5.53;;;3.30;;
10162;SDS011;5123;52.556;13.384;2023-07-24T01:12:25;4.53;;;3.23;;
10162;SDS011;5123;52.556;13.384;2023-07-24T01:15:03;3.97;;;3.00;;
10162;SDS011;5123;52.556;13.384;2023-07-24T01:17:42;4.10;;;3.03;;
10162;SDS011;5123;52.556;13.384;2023-07-24T01:20:17;3.33;;;3.03;;
10162;SDS011;5123;52.556;13.384;2023-07-24T01:22:57;6.43;;;3.23;;
10162;SDS011;5123;52.556;13.384;2023-07-24T01:25:35;3.50;;;2.73;;
10162;SDS011;5123;52.556;13.384;2023-07-24T01:28:11;4.03;;;3.20;;
10162;SDS011;5123;52.556;13.384;2023-07-24T01:30:58;4.80;;;3.27;;
10162;SDS011;5123;52.556;13.384;2023-07-24T01:33:33;3.80;;;2.90;;
10162;SDS011;5123;52.556;13.384;2023-07-24T01:36:07;3.53;;;3.10;;
10162;SDS011;5123;52.556;13.384;2023-07-24T01:38:40;6.13;;;3.30;;
10162;SDS011;5123;52.556;13.384;2023-07-24T01:41:14;4.57;;;3.27;;
10162;SDS011;5123;52.556;13.384;2023-07-24T01:43:49;3.50;;;3.20;;
10162;SDS011;5123;52.556;13.384;2023-07-24T01:46:24;5.97;;;3.40;;
10162;SDS011;5123;52.556;13.384;2023-07-24T01:48:57;3.33;;;2.77;;
10162;SDS011;5123;52.556;13.384;2023-07-24T01:51:30;3.70;;;3.10;;
10162;SDS011;5123;52.556;13.384;2023-07-24T01:54:03;4.03;;;2.73;;
10162;SDS011;5123;52.556;13.384;2023-07-24T01:56:36;3.47;;;2.87;;
10162;SDS011;5123;52.556;13.384;2023-07-24T01:59:10;4.13;;;3.30;;
10162;SDS011;5123;52.556;13.384;2023-07-24T02:01:42;3.43;;;2.90;;
10162;SDS011;5123;52.556;13.384;2023-07-24T02:04:15;3.00;;;2.70;;
10162;SDS011;5123;52.556;13.384;2023-07-24T02:06:48;3.50;;;3.10;;
10162;SDS011;5123;52.556;13.384;2023-07-24T02:09:21;3.30;;;2.80;;
10162;SDS011;5123;52.556;13.384;2023-07-24T02:11:53;5.03;;;2.90;;
10162;SDS011;5123;52.556;13.384;2023-07-24T02:14:27;3.10;;;2.63;;
10162;SDS011;5123;52.556;13.384;2023-07-24T02:17:01;3.70;;;2.70;;
10162;SDS011;5123;52.556;13.384;2023-07-24T02:19:34;2.90;;;2.60;;
10162;SDS011;5123;52.556;13.384;2023-07-24T02:22:07;3.13;;;2.53;;
10162;SDS011;5123;52.556;13.384;2023-07-24T02:24:39;3.30;;;2.90;;
10162;SDS011;5123;52.556;13.384;2023-07-24T02:27:24;4.03;;;2.60;;
10162;SDS011;5123;52.556;13.384;2023-07-24T02:29:58;3.37;;;3.07;;
10162;SDS011;5123;52.556;13.384;2023-07-24T02:32:31;3.37;;;2.90;;
10162;SDS011;5123;52.556;13.384;2023-07-24T02:35:06;4.43;;;3.30;;
10162;SDS011;5123;52.556;13.384;2023-07-24T02:37:41;3.83;;;2.97;;
10162;SDS011;5123;52.556;13.384;2023-07-24T02:40:14;4.53;;;3.07;;
10162;SDS011;5123;52.556;13.384;2023-07-24T02:42:49;3.47;;;3.17;;
10162;SDS011;5123;52.556;13.384;2023-07-24T02:45:24;3.77;;;3.00;;
10162;SDS011;5123;52.556;13.384;2023-07-24T02:47:56;5.57;;;3.00;;
10162;SDS011;5123;52.556;13.384;2023-07-24T02:50:29;7.33;;;3.43;;
10162;SDS011;5123;52.556;13.384;2023-07-24T02:53:02;3.30;;;2.80;;
10162;SDS011;5123;52.556;13.384;2023-07-24T02:55:35;5.20;;;2.77;;
10162;SDS011;5123;52.556;13.384;2023-07-24T02:58:08;4.60;;;3.03;;
10162;SDS011;5123;52.556;13.384;2023-07-24T03:00:44;2.90;;;2.57;;
10162;SDS011;5123;52.556;13.384;2023-07-24T03:03:17;3.13;;;2.63;;
10162;SDS011;5123;52.556;13.384;2023-07-24T03:05:53;3.67;;;2.90;;
10162;SDS011;5123;52.556;13.384;2023-07-24T03:08:25;5.47;;;2.70;;
10162;SDS011;5123;52.556;13.384;2023-07-24T03:10:58;3.63;;;2.30;;
10162;SDS011;5123;52.556;13.384;2023-07-24T03:13:31;4.20;;;2.60;;
10162;SDS011;5123;52.556;13.384;2023-07-24T03:16:05;3.60;;;2.70;;
10162;SDS011;5123;52.556;13.384;2023-07-24T03:18:38;3.97;;;2.30;;
10162;SDS011;5123;52.556;13.384;2023-07-24T03:21:11;3.10;;;2.80;;
10162;SDS011;5123;52.556;13.384;2023-07-24T03:23:44;3.50;;;2.57;;
10162;SDS011;5123;52.556;13.384;2023-07-24T03:26:16;2.40;;;2.20;;
10162;SDS011;5123;52.556;13.384;2023-07-24T03:28:49;4.93;;;2.60;;
10162;SDS011;5123;52.556;13.384;2023-07-24T03:31:23;4.40;;;3.13;;
10162;SDS011;5123;52.556;13.384;2023-07-24T03:33:56;2.67;;;2.40;;
10162;SDS011;5123;52.556;13.384;2023-07-24T03:36:29;2.60;;;2.40;;
10162;SDS011;5123;52.556;13.384;2023-07-24T03:39:02;4.33;;;2.47;;
10162;SDS011;5123;52.556;13.384;2023-07-24T03:41:35;2.70;;;2.37;;
10162;SDS011;5123;52.556;13.384;2023-07-24T03:44:08;3.40;;;2.60;;
10162;SDS011;5123;52.556;13.384;2023-07-24T03:46:53;2.80;;;2.27;;
10162;SDS011;5123;52.556;13.384;2023-07-24T03:49:26;3.03;;;2.60;;
10162;SDS011;5123;52.556;13.384;2023-07-24T03:51:59;2.97;;;2.43;;
10162;SDS011;5123;52.556;13.384;2023-07-24T03:54:31;2.93;;;2.30;;
10162;SDS011;5123;52.556;13.384;2023-07-24T03:57:04;2.63;;;2.30;;
10162;SDS011;5123;52.556;13.384;2023-07-24T03:59:37;2.80;;;2.60;;
10162;SDS011;5123;52.556;13.384;2023-07-24T04:02:11;2.40;;;2.20;;
10162;SDS011;5123;52.556;13.384;2023-07-24T04:04:44;2.93;;;2.53;;
10162;SDS011;5123;52.556;13.384;2023-07-24T04:07:16;3.20;;;2.70;;
10162;SDS011;5123;52.556;13.384;2023-07-24T04:09:49;3.07;;;2.60;;
10162;SDS011;5123;52.556;13.384;2023-07-24T04:12:22;3.73;;;2.33;;
10162;SDS011;5123;52.556;13.384;2023-07-24T04:14:54;3.43;;;2.47;;
10162;SDS011;5123;52.556;13.384;2023-07-24T04:17:28;4.40;;;4.00;;
10162;SDS011;5123;52.556;13.384;2023-07-24T04:20:01;3.30;;;3.00;;
10162;SDS011;5123;52.556;13.384;2023-07-24T04:22:34;4.57;;;2.67;;
10162;SDS011;5123;52.556;13.384;2023-07-24T04:25:07;2.43;;;1.97;;
10162;SDS011;5123;52.556;13.384;2023-07-24T04:27:40;3.40;;;2.27;;
10162;SDS011;5123;52.556;13.384;2023-07-24T04:30:15;2.30;;;2.10;;
10162;SDS011;5123;52.556;13.384;2023-07-24T04:32:50;2.50;;;2.30;;
10162;SDS011;5123;52.556;13.384;2023-07-24T04:35:22;3.23;;;2.43;;
10162;SDS011;5123;52.556;13.384;2023-07-24T04:37:55;2.30;;;2.10;;
10162;SDS011;5123;52.556;13.384;2023-07-24T04:40:29;2.20;;;2.00;;
10162;SDS011;5123;52.556;13.384;2023-07-24T04:43:01;2.53;;;2.33;;
10162;SDS011;5123;52.556;13.384;2023-07-24T04:45:34;3.13;;;2.47;;
10162;SDS011;5123;52.556;13.384;2023-07-24T04:48:10;3.97;;;2.33;;
10162;SDS011;5123;52.556;13.384;2023-07-24T04:50:43;3.00;;;2.20;;
10162;SDS011;5123;52.556;13.384;2023-07-24T04:53:16;2.30;;;2.10;;
10162;SDS011;5123;52.556;13.384;2023-07-24T04:55:51;3.27;;;2.27;;
10162;SDS011;5123;52.556;13.384;2023-07-24T04:58:23;3.20;;;2.20;;
10162;SDS011;5123;52.556;13.384;2023-07-24T05:00:56;2.10;;;1.90;;
10162;SDS011;5123;52.556;13.384;2023-07-24T05:03:30;4.30;;;2.17;;
10162;SDS011;5123;52.556;13.384;2023-07-24T05:06:06;2.10;;;1.80;;
10162;SDS011;5123;52.556;13.384;2023-07-24T05:08:41;1.93;;;1.83;;
10162;SDS011;5123;52.556;13.384;2023-07-24T05:11:13;2.20;;;1.90;;
10162;SDS011;5123;52.556;13.384;2023-07-24T05:13:46;1.97;;;1.80;;
10162;SDS011;5123;52.556;13.384;2023-07-24T05:16:19;2.37;;;1.90;;
10162;SDS011;5123;52.556;13.384;2023-07-24T05:18:53;2.30;;;1.90;;
10162;SDS011;5123;52.556;13.384;2023-07-24T05:21:26;2.30;;;2.13;;
10162;SDS011;5123;52.556;13.384;2023-07-24T05:23:58;2.50;;;2.30;;
10162;SDS011;5123;52.556;13.384;2023-07-24T05:26:34;2.13;;;1.93;;
10162;SDS011;5123;52.556;13.384;2023-07-24T05:29:06;2.67;;;2.33;;
10162;SDS011;5123;52.556;13.384;2023-07-24T05:31:39;1.87;;;1.77;;
10162;SDS011;5123;52.556;13.384;2023-07-24T05:34:13;1.83;;;1.73;;
10162;SDS011;5123;52.556;13.384;2023-07-24T05:36:46;4.27;;;2.00;;
10162;SDS011;5123;52.556;13.384;2023-07-24T05:39:19;4.57;;;2.07;;
10162;SDS011;5123;52.556;13.384;2023-07-24T05:41:51;3.10;;;2.10;;
10162;SDS011;5123;52.556;13.384;2023-07-24T05:44:24;3.70;;;2.10;;
10162;SDS011;5123;52.556;13.384;2023-07-24T05:46:57;2.47;;;1.90;;
10162;SDS011;5123;52.556;13.384;2023-07-24T05:49:31;2.07;;;1.73;;
10162;SDS011;5123;52.556;13.384;2023-07-24T05:52:04;3.60;;;1.70;;
10162;SDS011;5123;52.556;13.384;2023-07-24T05:54:37;2.97;;;2.00;;
10162;SDS011;5123;52.556;13.384;2023-07-24T05:57:09;2.17;;;1.83;;
10162;SDS011;5123;52.556;13.384;2023-07-24T05:59:43;3.20;;;1.83;;
10162;SDS011;5123;52.556;13.384;2023-07-24T06:02:16;2.10;;;1.90;;
10162;SDS011;5123;52.556;13.384;2023-07-24T06:04:56;1.63;;;1.53;;
10162;SDS011;5123;52.556;13.384;2023-07-24T06:07:30;3.00;;;2.13;;
10162;SDS011;5123;52.556;13.384;2023-07-24T06:10:03;1.80;;;1.70;;
10162;SDS011;5123;52.556;13.384;2023-07-24T06:12:36;1.60;;;1.43;;
10162;SDS011;5123;52.556;13.384;2023-07-24T06:15:11;2.03;;;1.83;;
10162;SDS011;5123;52.556;13.384;2023-07-24T06:17:46;2.23;;;1.73;;
10162;SDS011;5123;52.556;13.384;2023-07-24T06:20:25;2.77;;;1.90;;
10162;SDS011;5123;52.556;13.384;2023-07-24T06:22:59;2.27;;;2.07;;
10162;SDS011;5123;52.556;13.384;2023-07-24T06:25:33;2.47;;;2.03;;
10162;SDS011;5123;52.556;13.384;2023-07-24T06:28:06;3.60;;;1.97;;
10162;SDS011;5123;52.556;13.384;2023-07-24T06:30:39;2.87;;;2.30;;
10162;SDS011;5123;52.556;13.384;2023-07-24T06:33:11;2.27;;;2.03;;
10162;SDS011;5123;52.556;13.384;2023-07-24T06:35:46;2.50;;;2.30;;
10162;SDS011;5123;52.556;13.384;2023-07-24T06:38:18;5.23;;;2.50;;
10162;SDS011;5123;52.556;13.384;2023-07-24T06:40:52;5.57;;;2.70;;
10162;SDS011;5123;52.556;13.384;2023-07-24T06:43:25;2.63;;;2.43;;
10162;SDS011;5123;52.556;13.384;2023-07-24T06:45:59;2.70;;;2.50;;
10162;SDS011;5123;52.556;13.384;2023-07-24T06:48:35;2.50;;;2.30;;
10162;SDS011;5123;52.556;13.384;2023-07-24T06:51:09;2.80;;;2.60;;
10162;SDS011;5123;52.556;13.384;2023-07-24T06:53:41;5.07;;;2.77;;
10162;SDS011;5123;52.556;13.384;2023-07-24T06:56:14;3.33;;;2.30;;
10162;SDS011;5123;52.556;13.384;2023-07-24T06:58:47;2.53;;;1.93;;
10162;SDS011;5123;52.556;13.384;2023-07-24T07:01:21;2.97;;;1.83;;
10162;SDS011;5123;52.556;13.384;2023-07-24T07:03:54;2.60;;;2.17;;
10162;SDS011;5123;52.556;13.384;2023-07-24T07:06:28;2.83;;;1.90;;
10162;SDS011;5123;52.556;13.384;2023-07-24T07:09:02;2.10;;;1.87;;
10162;SDS011;5123;52.556;13.384;2023-07-24T07:11:36;3.53;;;2.23;;
10162;SDS011;5123;52.556;13.384;2023-07-24T07:14:08;3.47;;;2.20;;
10162;SDS011;5123;52.556;13.384;2023-07-24T07:16:41;2.30;;;1.90;;
10162;SDS011;5123;52.556;13.384;2023-07-24T07:19:15;2.87;;;2.40;;
10162;SDS011;5123;52.556;13.384;2023-07-24T07:21:49;2.70;;;2.30;;
10162;SDS011;5123;52.556;13.384;2023-07-24T07:24:22;3.60;;;1.90;;
10162;SDS011;5123;52.556;13.384;2023-07-24T07:26:55;2.60;;;2.20;;
10162;SDS011;5123;52.556;13.384;2023-07-24T07:29:27;2.37;;;1.97;;
10162;SDS011;5123;52.556;13.384;2023-07-24T07:32:03;2.10;;;1.90;;
10162;SDS011;5123;52.556;13.384;2023-07-24T07:34:35;7.17;;;6.10;;
10162;SDS011;5123;52.556;13.384;2023-07-24T07:37:11;2.63;;;2.43;;
10162;SDS011;5123;52.556;13.384;2023-07-24T07:39:44;2.43;;;2.23;;
10162;SDS011;5123;52.556;13.384;2023-07-24T07:42:18;3.97;;;2.50;;
10162;SDS011;5123;52.556;13.384;2023-07-24T07:44:50;3.37;;;2.50;;
10162;SDS011;5123;52.556;13.384;2023-07-24T07:47:23;2.53;;;2.33;;
10162;SDS011;5123;52.556;13.384;2023-07-24T07:49:58;2.10;;;2.00;;
10162;SDS011;5123;52.556;13.384;2023-07-24T07:52:33;2.67;;;2.47;;
10162;SDS011;5123;52.556;13.384;2023-07-24T07:55:07;2.77;;;2.03;;
10162;SDS011;5123;52.556;13.384;2023-07-24T07:57:47;2.80;;;2.60;;
10162;SDS011;5123;52.556;13.384;2023-07-24T08:00:20;2.20;;;2.10;;
10162;SDS011;5123;52.556;13.384;2023-07-24T08:02:53;2.20;;;1.93;;
10162;SDS011;5123;52.556;13.384;2023-07-24T08:05:26;2.40;;;2.17;;
10162;SDS011;5123;52.556;13.384;2023-07-24T08:08:01;2.67;;;2.40;;
10162;SDS011;5123;52.556;13.384;2023-07-24T08:10:38;3.60;;;2.13;;
10162;SDS011;5123;52.556;13.384;2023-07-24T08:13:12;2.60;;;2.40;;
10162;SDS011;5123;52.556;13.384;2023-07-24T08:15:45;2.30;;;2.10;;
10162;SDS011;5123;52.556;13.384;2023-07-24T08:18:17;2.30;;;2.10;;
10162;SDS011;5123;52.556;13.384;2023-07-24T08:20:50;1.80;;;1.70;;
10162;SDS011;5123;52.556;13.384;2023-07-24T08:23:26;3.00;;;2.30;;
10162;SDS011;5123;52.556;13.384;2023-07-24T08:25:59;2.20;;;2.00;;
10162;SDS011;5123;52.556;13.384;2023-07-24T08:28:36;2.10;;;1.90;;
10162;SDS011;5123;52.556;13.384;2023-07-24T08:31:13;4.63;;;2.10;;
10162;SDS011;5123;52.556;13.384;2023-07-24T08:33:46;3.27;;;1.90;;
10162;SDS011;5123;52.556;13.384;2023-07-24T08:36:19;4.03;;;2.63;;
10162;SDS011;5123;52.556;13.384;2023-07-24T08:38:56;2.37;;;2.17;;
10162;SDS011;5123;52.556;13.384;2023-07-24T08:41:28;2.30;;;2.10;;
10162;SDS011;5123;52.556;13.384;2023-07-24T08:44:06;3.90;;;2.37;;
10162;SDS011;5123;52.556;13.384;2023-07-24T08:46:42;5.47;;;2.53;;
10162;SDS011;5123;52.556;13.384;2023-07-24T08:49:17;2.43;;;2.20;;
10162;SDS011;5123;52.556;13.384;2023-07-24T08:51:52;2.53;;;2.33;;
10162;SDS011;5123;52.556;13.384;2023-07-24T08:54:27;4.33;;;2.17;;
10162;SDS011;5123;52.556;13.384;2023-07-24T08:57:03;3.43;;;2.30;;
10162;SDS011;5123;52.556;13.384;2023-07-24T08:59:37;2.37;;;2.17;;
10162;SDS011;5123;52.556;13.384;2023-07-24T09:02:12;2.17;;;1.90;;
10162;SDS011;5123;52.556;13.384;2023-07-24T09:04:46;2.10;;;1.73;;
10162;SDS011;5123;52.556;13.384;2023-07-24T09:07:21;2.33;;;2.10;;
10162;SDS011;5123;52.556;13.384;2023-07-24T09:09:55;3.43;;;2.00;;
10162;SDS011;5123;52.556;13.384;2023-07-24T09:12:28;2.23;;;1.80;;
10162;SDS011;5123;52.556;13.384;2023-07-24T09:15:01;3.63;;;1.90;;
10162;SDS011;5123;52.556;13.384;2023-07-24T09:17:46;3.03;;;2.00;;
10162;SDS011;5123;52.556;13.384;2023-07-24T09:20:19;5.93;;;2.45;;
10162;SDS011;5123;52.556;13.384;2023-07-24T09:22:55;2.93;;;2.60;;
10162;SDS011;5123;52.556;13.384;2023-07-24T09:25:47;2.70;;;2.50;;
10162;SDS011;5123;52.556;13.384;2023-07-24T09:28:20;4.30;;;2.97;;
10162;SDS011;5123;52.556;13.384;2023-07-24T09:30:53;2.80;;;2.55;;
10162;SDS011;5123;52.556;13.384;2023-07-24T09:33:33;4.80;;;3.15;;
10162;SDS011;5123;52.556;13.384;2023-07-24T09:36:07;3.70;;;3.40;;
10162;SDS011;5123;52.556;13.384;2023-07-24T09:38:41;3.03;;;2.60;;
10162;SDS011;5123;52.556;13.384;2023-07-24T09:41:15;2.17;;;1.98;;
10162;SDS011;5123;52.556;13.384;2023-07-24T09:43:57;2.25;;;2.05;;
10162;SDS011;5123;52.556;13.384;2023-07-24T09:46:30;3.40;;;2.38;;
10162;SDS011;5123;52.556;13.384;2023-07-24T09:49:15;2.30;;;2.10;;
10162;SDS011;5123;52.556;13.384;2023-07-24T09:51:48;4.10;;;2.45;;
10162;SDS011;5123;52.556;13.384;2023-07-24T09:54:24;3.45;;;2.00;;
10162;SDS011;5123;52.556;13.384;2023-07-24T09:56:59;2.25;;;2.05;;
10162;SDS011;5123;52.556;13.384;2023-07-24T09:59:45;2.75;;;2.47;;
10162;SDS011;5123;52.556;13.384;2023-07-24T10:02:21;3.08;;;2.60;;
10162;SDS011;5123;52.556;13.384;2023-07-24T10:04:56;4.00;;;3.22;;
10162;SDS011;5123;52.556;13.384;2023-07-24T10:07:29;2.80;;;2.38;;
10162;SDS011;5123;52.556;13.384;2023-07-24T10:10:07;4.75;;;3.67;;
10162;SDS011;5123;52.556;13.384;2023-07-24T10:12:44;7.28;;;4.03;;
10162;SDS011;5123;52.556;13.384;2023-07-24T10:15:17;6.43;;;5.75;;
10162;SDS011;5123;52.556;13.384;2023-07-24T10:18:00;8.23;;;5.30;;
10162;SDS011;5123;52.556;13.384;2023-07-24T10:20:33;11.45;;;8.25;;
10162;SDS011;5123;52.556;13.384;2023-07-24T10:23:08;4.80;;;3.78;;
10162;SDS011;5123;52.556;13.384;2023-07-24T10:25:43;4.63;;;3.13;;
10162;SDS011;5123;52.556;13.384;2023-07-24T10:28:18;6.47;;;5.03;;
10162;SDS011;5123;52.556;13.384;2023-07-24T10:30:54;5.20;;;3.42;;
10162;SDS011;5123;52.556;13.384;2023-07-24T10:33:29;7.05;;;4.60;;
10162;SDS011;5123;52.556;13.384;2023-07-24T10:36:05;7.15;;;3.97;;
10162;SDS011;5123;52.556;13.384;2023-07-24T10:38:41;4.93;;;4.05;;
10162;SDS011;5123;52.556;13.384;2023-07-24T10:41:14;3.13;;;2.83;;
10162;SDS011;5123;52.556;13.384;2023-07-24T10:43:49;4.63;;;3.30;;
10162;SDS011;5123;52.556;13.384;2023-07-24T10:46:22;3.55;;;3.05;;
10162;SDS011;5123;52.556;13.384;2023-07-24T10:48:55;3.03;;;2.70;;
10162;SDS011;5123;52.556;13.384;2023-07-24T10:51:33;5.03;;;4.53;;
10162;SDS011;5123;52.556;13.384;2023-07-24T10:54:08;4.28;;;3.60;;
10162;SDS011;5123;52.556;13.384;2023-07-24T10:56:41;4.55;;;3.78;;
10162;SDS011;5123;52.556;13.384;2023-07-24T10:59:16;5.35;;;4.30;;
10162;SDS011;5123;52.556;13.384;2023-07-24T11:01:49;5.85;;;3.63;;
10162;SDS011;5123;52.556;13.384;2023-07-24T11:04:21;4.25;;;3.50;;
10162;SDS011;5123;52.556;13.384;2023-07-24T11:06:54;5.07;;;3.70;;
10162;SDS011;5123;52.556;13.384;2023-07-24T11:09:35;3.97;;;3.30;;
10162;SDS011;5123;52.556;13.384;2023-07-24T11:12:09;5.43;;;4.93;;
10162;SDS011;5123;52.556;13.384;2023-07-24T11:14:50;6.00;;;4.68;;
10162;SDS011;5123;52.556;13.384;2023-07-24T11:17:22;4.57;;;3.75;;
10162;SDS011;5123;52.556;13.384;2023-07-24T11:20:06;4.20;;;3.80;;
10162;SDS011;5123;52.556;13.384;2023-07-24T11:22:39;6.97;;;4.30;;
10162;SDS011;5123;52.556;13.384;2023-07-24T11:25:12;4.82;;;3.95;;
10162;SDS011;5123;52.556;13.384;2023-07-24T11:27:45;6.75;;;4.10;;
10162;SDS011;5123;52.556;13.384;2023-07-24T11:30:20;4.85;;;4.10;;
10162;SDS011;5123;52.556;13.384;2023-07-24T11:32:53;4.32;;;3.85;;
10162;SDS011;5123;52.556;13.384;2023-07-24T11:35:27;5.30;;;4.60;;
10162;SDS011;5123;52.556;13.384;2023-07-24T11:38:00;5.60;;;4.63;;
10162;SDS011;5123;52.556;13.384;2023-07-24T11:40:38;6.40;;;4.10;;
10162;SDS011;5123;52.556;13.384;2023-07-24T11:43:17;5.13;;;3.92;;
10162;SDS011;5123;52.556;13.384;2023-07-24T11:45:52;7.40;;;4.45;;
10162;SDS011;5123;52.556;13.384;2023-07-24T11:48:25;5.35;;;4.38;;
10162;SDS011;5123;52.556;13.384;2023-07-24T11:50:58;6.00;;;4.32;;
10162;SDS011;5123;52.556;13.384;2023-07-24T11:53:31;5.15;;;4.05;;
10162;SDS011;5123;52.556;13.384;2023-07-24T11:56:13;4.97;;;4.05;;
10162;SDS011;5123;52.556;13.384;2023-07-24T11:58:45;6.85;;;3.85;;
10162;SDS011;5123;52.556;13.384;2023-07-24T12:01:21;5.93;;;4.70;;
10162;SDS011;5123;52.556;13.384;2023-07-24T12:03:54;6.63;;;4.63;;
10162;SDS011;5123;52.556;13.384;2023-07-24T12:06:29;5.60;;;4.28;;
10162;SDS011;5123;52.556;13.384;2023-07-24T12:09:03;5.82;;;4.55;;
10162;SDS011;5123;52.556;13.384;2023-07-24T12:11:38;6.05;;;4.10;;
10162;SDS011;5123;52.556;13.384;2023-07-24T12:14:16;5.63;;;4.88;;
10162;SDS011;5123;52.556;13.384;2023-07-24T12:16:53;6.00;;;4.22;;
10162;SDS011;5123;52.556;13.384;2023-07-24T12:19:34;9.20;;;4.15;;
10162;SDS011;5123;52.556;13.384;2023-07-24T12:22:07;5.00;;;4.00;;
10162;SDS011;5123;52.556;13.384;2023-07-24T12:24:40;9.67;;;6.77;;
10162;SDS011;5123;52.556;13.384;2023-07-24T12:27:13;7.53;;;4.50;;
10162;SDS011;5123;52.556;13.384;2023-07-24T12:29:46;6.20;;;4.40;;
10162;SDS011;5123;52.556;13.384;2023-07-24T12:32:23;4.53;;;3.63;;
10162;SDS011;5123;52.556;13.384;2023-07-24T12:34:56;5.57;;;4.20;;
10162;SDS011;5123;52.556;13.384;2023-07-24T12:37:29;4.90;;;4.20;;
10162;SDS011;5123;52.556;13.384;2023-07-24T12:40:02;5.40;;;4.60;;
10162;SDS011;5123;52.556;13.384;2023-07-24T12:42:35;5.70;;;4.20;;
10162;SDS011;5123;52.556;13.384;2023-07-24T12:45:08;5.83;;;4.00;;
10162;SDS011;5123;52.556;13.384;2023-07-24T12:47:42;6.03;;;4.10;;
10162;SDS011;5123;52.556;13.384;2023-07-24T12:50:15;6.83;;;4.03;;
10162;SDS011;5123;52.556;13.384;2023-07-24T12:52:49;4.87;;;4.00;;
10162;SDS011;5123;52.556;13.384;2023-07-24T12:55:22;5.90;;;4.00;;
10162;SDS011;5123;52.556;13.384;2023-07-24T12:57:55;8.03;;;4.13;;
10162;SDS011;5123;52.556;13.384;2023-07-24T13:00:28;6.70;;;4.67;;
10162;SDS011;5123;52.556;13.384;2023-07-24T13:03:04;4.90;;;3.83;;
10162;SDS011;5123;52.556;13.384;2023-07-24T13:05:37;4.97;;;3.83;;
10162;SDS011;5123;52.556;13.384;2023-07-24T13:08:10;5.83;;;4.00;;
10162;SDS011;5123;52.556;13.384;2023-07-24T13:10:46;7.60;;;4.10;;
10162;SDS011;5123;52.556;13.384;2023-07-24T13:13:19;4.50;;;3.77;;
10162;SDS011;5123;52.556;13.384;2023-07-24T13:15:51;7.07;;;4.00;;
10162;SDS011;5123;52.556;13.384;2023-07-24T13:18:28;4.67;;;3.80;;
10162;SDS011;5123;52.556;13.384;2023-07-24T13:21:03;5.03;;;4.37;;
10162;SDS011;5123;52.556;13.384;2023-07-24T13:23:37;5.67;;;4.53;;
10162;SDS011;5123;52.556;13.384;2023-07-24T13:26:11;8.17;;;4.40;;
10162;SDS011;5123;52.556;13.384;2023-07-24T13:28:45;12.27;;;9.70;;
10162;SDS011;5123;52.556;13.384;2023-07-24T13:31:19;5.07;;;4.37;;
10162;SDS011;5123;52.556;13.384;2023-07-24T13:33:53;5.07;;;4.20;;
10162;SDS011;5123;52.556;13.384;2023-07-24T13:36:26;6.70;;;4.23;;
10162;SDS011;5123;52.556;13.384;2023-07-24T13:38:59;5.43;;;4.27;;
10162;SDS011;5123;52.556;13.384;2023-07-24T13:41:32;5.03;;;4.20;;
10162;SDS011;5123;52.556;13.384;2023-07-24T13:44:05;5.83;;;4.00;;
10162;SDS011;5123;52.556;13.384;2023-07-24T13:46:38;5.00;;;4.50;;
10162;SDS011;5123;52.556;13.384;2023-07-24T13:49:13;4.00;;;3.60;;
10162;SDS011;5123;52.556;13.384;2023-07-24T13:51:46;4.70;;;3.80;;
10162;SDS011;5123;52.556;13.384;2023-07-24T13:54:19;8.00;;;6.10;;
10162;SDS011;5123;52.556;13.384;2023-07-24T13:56:52;3.90;;;3.50;;
10162;SDS011;5123;52.556;13.384;2023-07-24T13:59:25;3.97;;;3.57;;
10162;SDS011;5123;52.556;13.384;2023-07-24T14:01:59;4.57;;;3.50;;
10162;SDS011;5123;52.556;13.384;2023-07-24T14:04:33;6.40;;;3.67;;
10162;SDS011;5123;52.556;13.384;2023-07-24T14:07:08;4.80;;;4.30;;
10162;SDS011;5123;52.556;13.384;2023-07-24T14:09:41;5.20;;;3.80;;
10162;SDS011;5123;52.556;13.384;2023-07-24T14:12:16;3.63;;;3.10;;
10162;SDS011;5123;52.556;13.384;2023-07-24T14:14:49;3.43;;;3.00;;
10162;SDS011;5123;52.556;13.384;2023-07-24T14:17:22;7.33;;;5.23;;
10162;SDS011;5123;52.556;13.384;2023-07-24T14:19:56;6.00;;;5.00;;
10162;SDS011;5123;52.556;13.384;2023-07-24T14:22:31;6.07;;;3.70;;
10162;SDS011;5123;52.556;13.384;2023-07-24T14:25:04;4.63;;;3.10;;
10162;SDS011;5123;52.556;13.384;2023-07-24T14:27:37;6.63;;;3.73;;
10162;SDS011;5123;52.556;13.384;2023-07-24T14:30:11;4.60;;;3.77;;
10162;SDS011;5123;52.556;13.384;2023-07-24T14:32:45;3.67;;;3.20;;
10162;SDS011;5123;52.556;13.384;2023-07-24T14:35:22;4.77;;;3.53;;
10162;SDS011;5123;52.556;13.384;2023-07-24T14:37:55;4.07;;;3.60;;
10162;SDS011;5123;52.556;13.384;2023-07-24T14:40:28;4.13;;;3.30;;
10162;SDS011;5123;52.556;13.384;2023-07-24T14:43:04;5.47;;;3.70;;
10162;SDS011;5123;52.556;13.384;2023-07-24T14:45:38;4.80;;;3.33;;
10162;SDS011;5123;52.556;13.384;2023-07-24T14:48:11;3.27;;;2.93;;
10162;SDS011;5123;52.556;13.384;2023-07-24T14:50:49;5.70;;;3.93;;
10162;SDS011;5123;52.556;13.384;2023-07-24T14:53:22;4.70;;;4.20;;
10162;SDS011;5123;52.556;13.384;2023-07-24T14:55:56;5.27;;;3.70;;
10162;SDS011;5123;52.556;13.384;2023-07-24T14:58:36;5.17;;;3.57;;
10162;SDS011;5123;52.556;13.384;2023-07-24T15:01:09;5.67;;;4.80;;
10162;SDS011;5123;52.556;13.384;2023-07-24T15:03:42;6.73;;;5.10;;
10162;SDS011;5123;52.556;13.384;2023-07-24T15:06:16;4.07;;;3.40;;
10162;SDS011;5123;52.556;13.384;2023-07-24T15:08:51;5.40;;;4.20;;
10162;SDS011;5123;52.556;13.384;2023-07-24T15:11:27;5.67;;;3.67;;
10162;SDS011;5123;52.556;13.384;2023-07-24T15:14:00;3.87;;;3.47;;
10162;SDS011;5123;52.556;13.384;2023-07-24T15:16:33;3.80;;;3.40;;
10162;SDS011;5123;52.556;13.384;2023-07-24T15:19:05;4.90;;;3.83;;
10162;SDS011;5123;52.556;13.384;2023-07-24T15:21:40;4.60;;;3.80;;
10162;SDS011;5123;52.556;13.384;2023-07-24T15:24:15;4.90;;;4.00;;
10162;SDS011;5123;52.556;13.384;2023-07-24T15:26:49;3.50;;;3.20;;
10162;SDS011;5123;52.556;13.384;2023-07-24T15:29:22;3.60;;;3.30;;